Time;durP1;ratioP1;P1;durP2;ratioP2;P2;SDS_P1;SDS_P2;PMS_P1;PMS_P2;Temp;Humidity;BMP_temperature;BMP_pressure;BME280_temperature;BME280_humidity;BME280_pressure;Samples;Min_cycle;Max_cycle;Signal;HPM_P1;HPM_P2
2022/03/07 00:01:47;;;;;;;0.17;0.17;;;0.20;1.00;226.50;231333.00;;;;5009169;28;20728;-72
2022/03/07 00:04:17;;;;;;;0.20;0.20;;;0.20;1.00;226.50;231333.00;;;;5012469;28;20195;-71
2022/03/07 00:06:45;;;;;;;0.10;0.10;;;0.20;1.00;226.50;231333.00;;;;5011194;28;20216;-71
2022/03/07 00:09:14;;;;;;;0.20;0.20;;;0.20;1.00;226.50;231333.00;;;;5011397;28;20608;-73
2022/03/07 00:11:43;;;;;;;0.20;0.20;;;0.20;1.00;226.50;231333.00;;;;5011211;28;20204;-72
2022/03/07 00:14:13;;;;;;;0.20;0.20;;;0.20;1.00;226.50;231333.00;;;;5011509;28;20613;-71
2022/03/07 00:16:41;;;;;;;0.20;0.20;;;0.20;1.00;226.50;231333.00;;;;5010768;28;20859;-71
2022/03/07 00:19:09;;;;;;;0.10;0.10;;;0.20;1.00;226.50;231333.00;;;;5009970;28;20188;-72
2022/03/07 00:21:38;;;;;;;0.13;0.13;;;0.20;1.00;226.50;231333.00;;;;5010404;28;20219;-72
2022/03/07 00:24:08;;;;;;;0.10;0.10;;;0.20;1.00;226.50;231333.00;;;;5011023;28;20191;-73
2022/03/07 00:26:36;;;;;;;0.20;0.20;;;0.20;1.00;226.50;231333.00;;;;5010371;28;20262;-73
2022/03/07 00:29:04;;;;;;;0.10;0.10;;;0.30;1.00;226.50;231333.00;;;;5006827;28;20561;-73
2022/03/07 00:31:34;;;;;;;0.20;0.20;;;0.30;99.90;226.50;231333.00;;;;5011249;28;20203;-73
2022/03/07 00:34:02;;;;;;;0.10;0.10;;;0.30;1.00;226.50;231333.00;;;;5011062;28;20192;-73
2022/03/07 00:36:30;;;;;;;0.10;0.10;;;0.20;99.90;226.50;231333.00;;;;5012266;28;20220;-73
2022/03/07 00:38:58;;;;;;;0.10;0.10;;;0.20;99.90;226.50;231333.00;;;;5011602;28;20330;-71
2022/03/07 00:41:26;;;;;;;0.10;0.10;;;0.20;99.90;226.50;231333.00;;;;5015710;28;20720;-71
2022/03/07 00:43:54;;;;;;;0.20;0.20;;;0.20;1.00;226.50;231333.00;;;;5017462;28;20192;-72
2022/03/07 00:46:22;;;;;;;0.10;0.10;;;0.20;99.90;226.50;231333.00;;;;5015933;28;20315;-72
2022/03/07 00:48:52;;;;;;;0.20;0.20;;;0.20;99.90;226.50;231333.00;;;;5011105;28;20208;-72
2022/03/07 00:51:20;;;;;;;0.20;0.20;;;0.20;99.90;226.50;231333.00;;;;5014984;28;20569;-72
2022/03/07 00:53:48;;;;;;;0.10;0.10;;;0.20;99.90;226.50;231333.00;;;;5016457;28;20275;-73
2022/03/07 00:56:17;;;;;;;0.20;0.20;;;0.30;99.90;226.50;231333.00;;;;5016329;28;20208;-71
2022/03/07 00:58:46;;;;;;;0.10;0.10;;;0.30;99.90;226.50;231333.00;;;;5014108;28;20199;-72
2022/03/07 01:01:15;;;;;;;0.10;0.10;;;0.30;99.90;226.50;231333.00;;;;5013959;28;20704;-72
2022/03/07 01:03:43;;;;;;;0.20;0.20;;;0.30;99.90;226.50;231333.00;;;;5014933;28;20203;-72
2022/03/07 01:06:13;;;;;;;0.15;0.15;;;0.30;99.90;226.50;231333.00;;;;5014674;28;20196;-72
2022/03/07 01:08:40;;;;;;;0.20;0.20;;;0.30;23.20;226.50;231333.00;;;;5013530;28;20254;-71
2022/03/07 01:11:09;;;;;;;0.20;0.20;;;0.20;1.00;226.50;231333.00;;;;5014092;28;20247;-70
2022/03/07 01:13:37;;;;;;;0.10;0.10;;;0.30;1.00;226.50;231333.00;;;;5015107;28;20539;-71
2022/03/07 01:16:05;;;;;;;0.10;0.10;;;0.20;1.00;226.50;231333.00;;;;5015292;28;20791;-71
2022/03/07 01:18:33;;;;;;;0.20;0.20;;;0.20;1.00;226.50;231333.00;;;;5014674;28;20673;-72
2022/03/07 01:21:02;;;;;;;0.20;0.20;;;0.20;3.40;226.50;231333.00;;;;5013848;28;20243;-72
2022/03/07 01:23:31;;;;;;;0.20;0.20;;;0.20;38.20;226.50;231333.00;;;;5013636;28;20202;-71
2022/03/07 01:25:59;;;;;;;0.10;0.10;;;0.20;84.00;226.50;231333.00;;;;5014046;28;20196;-72
2022/03/07 01:28:27;;;;;;;0.20;0.20;;;0.20;94.30;226.50;231333.00;;;;5014948;28;20211;-72
2022/03/07 01:30:56;;;;;;;0.10;0.10;;;0.20;66.70;226.50;231333.00;;;;5013359;28;20191;-72
2022/03/07 01:33:24;;;;;;;0.20;0.20;;;0.10;1.00;226.50;231333.00;;;;5007855;28;20208;-72
2022/03/07 01:35:52;;;;;;;0.10;0.10;;;0.10;32.60;226.50;231333.00;;;;5011099;28;20215;-72
2022/03/07 01:38:20;;;;;;;0.10;0.10;;;0.10;99.90;226.50;231333.00;;;;5006613;28;20266;-72
2022/03/07 01:40:50;;;;;;;0.10;0.10;;;0.10;99.90;226.50;231333.00;;;;5028468;28;20537;-72
2022/03/07 01:43:19;;;;;;;0.10;0.10;;;0.10;99.90;226.50;231333.00;;;;5011669;28;20192;-71
2022/03/07 01:45:47;;;;;;;0.20;0.20;;;0.10;99.90;226.50;231333.00;;;;5013059;28;20279;-71
2022/03/07 01:48:15;;;;;;;0.17;0.17;;;0.10;99.90;226.50;231333.00;;;;5015015;28;20257;-70
2022/03/07 01:50:44;;;;;;;0.20;0.20;;;0.00;99.90;226.50;231333.00;;;;5013766;28;20203;-70
2022/03/07 01:53:12;;;;;;;0.10;0.10;;;0.00;99.90;226.50;231333.00;;;;5014915;28;20195;-70
2022/03/07 01:55:41;;;;;;;0.20;0.20;;;0.00;1.00;226.50;231333.00;;;;5012410;28;20198;-71
2022/03/07 01:58:10;;;;;;;0.10;0.10;;;0.10;1.00;226.50;231333.00;;;;5012764;28;20229;-71
2022/03/07 02:00:39;;;;;;;0.15;0.15;;;0.10;1.00;226.50;231333.00;;;;5021781;28;20188;-71
2022/03/07 02:03:08;;;;;;;0.20;0.20;;;0.20;1.00;226.50;231333.00;;;;5013813;28;20310;-72
2022/03/07 02:05:41;;;;;;;0.10;0.10;;;0.20;1.00;226.50;231333.00;;;;5010032;28;20915;-71
2022/03/07 02:08:16;;;;;;;0.17;0.17;;;0.20;1.00;226.50;231333.00;;;;5028029;28;20241;-71
2022/03/07 02:10:50;;;;;;;0.20;0.20;;;0.30;1.00;226.50;231333.00;;;;5005547;28;20242;-71
2022/03/07 02:13:21;;;;;;;0.10;0.10;;;0.30;1.00;226.50;231333.00;;;;5008895;28;20216;-71
2022/03/07 02:15:59;;;;;;;0.10;0.10;;;0.30;1.00;226.50;231333.00;;;;5010048;28;20208;-71
2022/03/07 02:18:33;;;;;;;0.15;0.15;;;0.30;1.00;226.50;231333.00;;;;5013760;28;20213;-71
2022/03/07 02:21:28;;;;;;;0.15;0.15;;;0.30;1.00;226.50;231333.00;;;;5011734;28;20294;-71
2022/03/07 02:24:10;;;;;;;0.20;0.20;;;0.30;1.00;226.50;231333.00;;;;5013283;28;20223;-72
2022/03/07 02:26:41;;;;;;;0.15;0.15;;;0.30;1.00;226.50;231333.00;;;;5015222;28;20238;-71
2022/03/07 02:29:10;;;;;;;0.20;0.20;;;0.20;1.00;226.50;231333.00;;;;5011525;28;20634;-72
2022/03/07 02:31:42;;;;;;;0.10;0.10;;;0.20;1.00;226.50;231333.00;;;;5014790;28;20558;-72
2022/03/07 02:34:14;;;;;;;0.15;0.15;;;0.20;1.00;226.50;231333.00;;;;5031602;28;20191;-72
2022/03/07 02:36:43;;;;;;;0.15;0.15;;;0.20;1.00;226.50;231333.00;;;;5011914;28;20220;-72
2022/03/07 02:39:14;;;;;;;0.10;0.10;;;0.20;1.00;226.50;231333.00;;;;5012736;28;20191;-73
2022/03/07 02:41:44;;;;;;;0.10;0.10;;;0.20;85.90;226.50;231333.00;;;;5026407;28;20212;-73
2022/03/07 02:44:13;;;;;;;0.10;0.10;;;0.30;99.90;226.50;231333.00;;;;5010016;28;20225;-73
2022/03/07 02:46:44;;;;;;;0.10;0.10;;;0.30;97.90;226.50;231333.00;;;;5028913;28;20273;-73
2022/03/07 02:49:12;;;;;;;0.10;0.10;;;0.30;53.40;226.50;231333.00;;;;5029550;28;20191;-73
2022/03/07 02:51:40;;;;;;;0.20;0.20;;;0.30;99.90;226.50;231333.00;;;;5011356;28;20198;-71
2022/03/07 02:54:08;;;;;;;0.20;0.20;;;0.30;55.60;226.50;231333.00;;;;5008931;28;20196;-72
2022/03/07 02:56:38;;;;;;;0.20;0.20;;;0.20;1.00;226.50;231333.00;;;;5011073;28;20204;-72
2022/03/07 02:59:06;;;;;;;0.17;0.17;;;0.10;1.00;226.50;231333.00;;;;5013964;28;20199;-72
2022/03/07 03:01:34;;;;;;;0.10;0.10;;;0.20;99.90;226.50;231333.00;;;;5014080;28;20204;-72
2022/03/07 03:04:02;;;;;;;0.10;0.10;;;0.20;99.90;226.50;231333.00;;;;5013360;28;20192;-72
2022/03/07 03:06:31;;;;;;;0.20;0.20;;;0.20;99.90;226.50;231333.00;;;;5013324;28;20212;-72
2022/03/07 03:08:58;;;;;;;0.10;0.10;;;0.20;99.90;226.50;231333.00;;;;5006064;28;20196;-72
2022/03/07 03:11:28;;;;;;;0.10;0.10;;;0.20;99.90;226.50;231333.00;;;;5016171;28;20598;-72
2022/03/07 03:13:57;;;;;;;0.10;0.10;;;0.30;99.90;226.50;231333.00;;;;5017926;28;20226;-73
2022/03/07 03:16:25;;;;;;;0.10;0.10;;;0.30;99.90;226.50;231333.00;;;;5017335;28;20814;-73
2022/03/07 03:18:53;;;;;;;0.10;0.10;;;0.30;99.90;226.50;231333.00;;;;5018219;28;20597;-73
2022/03/07 03:21:21;;;;;;;0.10;0.10;;;0.30;99.90;226.50;231333.00;;;;5017848;28;20649;-71
2022/03/07 03:23:50;;;;;;;0.20;0.20;;;0.40;94.00;226.50;231333.00;;;;5012619;28;20735;-72
2022/03/07 03:26:18;;;;;;;0.10;0.10;;;0.30;1.00;226.50;231333.00;;;;5012414;28;20219;-72
2022/03/07 03:28:46;;;;;;;0.10;0.10;;;0.30;99.90;226.50;231333.00;;;;5011679;28;20196;-71
2022/03/07 03:31:15;;;;;;;0.20;0.20;;;0.30;99.90;226.50;231333.00;;;;5005188;28;20208;-71
2022/03/07 03:33:43;;;;;;;0.10;0.10;;;0.30;99.90;226.50;231333.00;;;;5011850;28;20211;-71
2022/03/07 03:36:12;;;;;;;0.10;0.10;;;0.30;99.90;226.50;231333.00;;;;5012889;28;20194;-71
2022/03/07 03:38:40;;;;;;;0.10;0.10;;;0.30;99.90;226.50;231333.00;;;;5012858;28;20271;-71
2022/03/07 03:41:08;;;;;;;0.10;0.10;;;0.30;99.90;226.50;231333.00;;;;5014522;28;20196;-71
2022/03/07 03:43:36;;;;;;;0.20;0.20;;;0.30;99.90;226.50;231333.00;;;;5017213;28;20226;-71
2022/03/07 03:46:04;;;;;;;0.20;0.20;;;0.30;99.90;226.50;231333.00;;;;5017048;28;20192;-71
2022/03/07 03:48:33;;;;;;;0.20;0.20;;;0.30;99.90;226.50;231333.00;;;;5017047;28;20622;-72
2022/03/07 03:51:01;;;;;;;0.20;0.20;;;0.30;99.90;226.50;231333.00;;;;5019133;28;20196;-71
2022/03/07 03:53:29;;;;;;;0.17;0.17;;;0.30;99.90;226.50;231333.00;;;;5017380;28;20208;-71
2022/03/07 03:55:57;;;;;;;0.20;0.20;;;0.30;99.90;226.50;231333.00;;;;5019582;28;20250;-71
2022/03/07 03:58:25;;;;;;;0.10;0.10;;;0.30;99.90;226.50;231333.00;;;;5020064;28;20227;-72
2022/03/07 04:00:53;;;;;;;0.20;0.20;;;0.20;99.90;226.50;231333.00;;;;5016911;28;20200;-72
2022/03/07 04:03:22;;;;;;;0.20;0.20;;;0.20;99.90;226.50;231333.00;;;;5015183;28;20219;-72
2022/03/07 04:05:52;;;;;;;0.20;0.20;;;0.10;99.90;226.50;231333.00;;;;5012708;28;20594;-72
2022/03/07 04:08:20;;;;;;;0.20;0.20;;;0.20;1.00;226.50;231333.00;;;;5012491;28;20212;-73
2022/03/07 04:10:47;;;;;;;0.10;0.10;;;0.20;1.00;226.50;231333.00;;;;5011175;28;20218;-73
2022/03/07 04:13:15;;;;;;;0.10;0.10;;;0.20;1.00;226.50;231333.00;;;;5011749;28;20192;-72
2022/03/07 04:15:43;;;;;;;0.20;0.20;;;0.20;1.00;226.50;231333.00;;;;5013466;28;20199;-71
2022/03/07 04:18:11;;;;;;;0.10;0.10;;;0.30;1.00;226.50;231333.00;;;;5017164;28;20243;-71
2022/03/07 04:20:39;;;;;;;0.10;0.10;;;0.20;1.00;226.50;231333.00;;;;5018869;28;20196;-72
2022/03/07 04:23:09;;;;;;;0.10;0.10;;;0.30;1.00;226.50;231333.00;;;;5017549;28;20346;-71
2022/03/07 04:25:37;;;;;;;0.10;0.10;;;0.20;1.00;226.50;231333.00;;;;5018056;28;20196;-71
2022/03/07 04:28:05;;;;;;;0.10;0.10;;;0.00;1.00;226.50;231333.00;;;;5015565;28;20223;-71
2022/03/07 04:30:34;;;;;;;0.10;0.10;;;0.10;63.80;226.50;231333.00;;;;5017171;28;20783;-71
2022/03/07 04:33:01;;;;;;;0.20;0.20;;;0.10;99.90;226.50;231333.00;;;;5016645;28;20242;-71
2022/03/07 04:35:29;;;;;;;0.10;0.10;;;0.20;99.90;226.50;231333.00;;;;5016960;28;20199;-71
2022/03/07 04:37:57;;;;;;;0.10;0.10;;;0.10;99.90;226.50;231333.00;;;;5015861;28;20716;-71
2022/03/07 04:40:27;;;;;;;0.20;0.20;;;0.10;99.90;226.50;231333.00;;;;5016240;28;20748;-71
2022/03/07 04:42:56;;;;;;;0.15;0.15;;;0.10;99.90;226.50;231333.00;;;;5016129;28;20688;-71
2022/03/07 04:45:25;;;;;;;0.20;0.20;;;0.10;99.90;226.50;231333.00;;;;5012787;28;20199;-71
2022/03/07 04:47:53;;;;;;;0.10;0.10;;;0.10;99.90;226.50;231333.00;;;;5013455;28;20274;-71
2022/03/07 04:50:20;;;;;;;0.20;0.20;;;0.20;99.90;226.50;231333.00;;;;5014646;28;20199;-71
2022/03/07 04:52:49;;;;;;;0.10;0.10;;;0.20;99.90;226.50;231333.00;;;;5014336;28;20218;-71
2022/03/07 04:55:17;;;;;;;0.20;0.20;;;0.20;1.00;226.50;231333.00;;;;5013513;28;20187;-72
2022/03/07 04:57:46;;;;;;;0.20;0.20;;;0.20;99.90;226.50;231333.00;;;;5012171;28;20220;-71
2022/03/07 05:00:16;;;;;;;0.10;0.10;;;0.20;1.00;226.50;231333.00;;;;5008004;28;20585;-71
2022/03/07 05:02:44;;;;;;;0.10;0.10;;;0.30;1.00;226.50;231333.00;;;;5009807;28;20653;-71
2022/03/07 05:05:12;;;;;;;0.10;0.10;;;0.30;1.00;226.50;231333.00;;;;5014935;28;20630;-71
2022/03/07 05:07:40;;;;;;;0.15;0.15;;;0.30;1.00;226.50;231333.00;;;;5008715;28;20207;-71
2022/03/07 05:10:09;;;;;;;0.13;0.13;;;0.30;1.00;226.50;231333.00;;;;5016277;28;20188;-73
2022/03/07 05:12:37;;;;;;;0.10;0.10;;;0.30;1.00;226.50;231333.00;;;;5012902;28;20196;-72
2022/03/07 05:15:08;;;;;;;0.10;0.10;;;0.30;1.00;226.50;231333.00;;;;5015250;28;20705;-72
2022/03/07 05:17:42;;;;;;;0.13;0.13;;;0.30;1.00;226.50;231333.00;;;;5015055;28;20208;-72
2022/03/07 05:20:12;;;;;;;0.20;0.20;;;0.20;1.00;226.50;231333.00;;;;5010888;28;20250;-71
2022/03/07 05:22:41;;;;;;;0.10;0.10;;;0.20;1.00;226.50;231333.00;;;;5015199;28;20204;-72
2022/03/07 05:25:10;;;;;;;0.15;0.15;;;0.20;1.00;226.50;231333.00;;;;5014188;28;20224;-72
2022/03/07 05:27:39;;;;;;;0.10;0.10;;;0.20;1.00;226.50;231333.00;;;;5014411;28;20223;-72
2022/03/07 05:30:13;;;;;;;0.10;0.10;;;0.20;1.00;226.50;231333.00;;;;5015150;28;20199;-72
2022/03/07 05:32:41;;;;;;;0.10;0.10;;;0.20;1.00;226.50;231333.00;;;;5014871;28;20207;-72
2022/03/07 05:35:09;;;;;;;0.10;0.10;;;0.30;1.00;226.50;231333.00;;;;5006371;28;20210;-72
2022/03/07 05:37:37;;;;;;;0.10;0.10;;;0.30;1.00;226.50;231333.00;;;;5011135;28;20315;-72
2022/03/07 05:40:09;;;;;;;0.20;0.20;;;0.30;1.00;226.50;231333.00;;;;5010558;28;20188;-72
2022/03/07 05:42:39;;;;;;;0.10;0.10;;;0.30;1.00;226.50;231333.00;;;;5015257;28;20258;-72
2022/03/07 05:45:11;;;;;;;0.10;0.10;;;0.30;1.00;226.50;231333.00;;;;5006878;28;20571;-70
2022/03/07 05:47:40;;;;;;;0.10;0.10;;;0.30;1.00;226.50;231333.00;;;;5011213;28;20219;-70
2022/03/07 05:50:10;;;;;;;0.20;0.20;;;0.20;1.00;226.50;231333.00;;;;5014535;28;20199;-70
2022/03/07 05:52:38;;;;;;;0.20;0.20;;;0.30;10.10;226.50;231333.00;;;;5008711;28;20219;-70
2022/03/07 05:55:08;;;;;;;0.20;0.20;;;0.40;1.00;226.50;231333.00;;;;5015905;28;20196;-70
2022/03/07 05:57:36;;;;;;;0.20;0.20;;;0.40;1.00;226.50;231333.00;;;;5017045;28;20215;-70
2022/03/07 06:00:09;;;;;;;0.15;0.15;;;0.40;1.00;226.50;231333.00;;;;5018293;28;20207;-72
2022/03/07 06:02:37;;;;;;;0.10;0.10;;;0.40;1.00;226.50;231333.00;;;;5016172;28;20199;-72
2022/03/07 06:05:06;;;;;;;0.10;0.10;;;0.40;1.00;226.50;231333.00;;;;5015321;28;20215;-72
2022/03/07 06:07:34;;;;;;;0.10;0.10;;;0.40;1.00;226.50;231333.00;;;;5016197;28;20616;-72
2022/03/07 06:10:03;;;;;;;0.15;0.15;;;0.40;1.00;226.50;231333.00;;;;5009091;28;20199;-71
2022/03/07 06:12:31;;;;;;;0.20;0.20;;;0.40;1.00;226.50;231333.00;;;;5014948;28;20655;-72
2022/03/07 06:15:03;;;;;;;0.10;0.10;;;0.40;1.00;226.50;231333.00;;;;5013246;28;20187;-74
2022/03/07 06:17:33;;;;;;;0.20;0.20;;;0.40;1.00;226.50;231333.00;;;;5007596;28;20282;-73
2022/03/07 06:20:01;;;;;;;0.20;0.20;;;0.50;1.00;226.50;231333.00;;;;5009675;28;20211;-72
2022/03/07 06:22:29;;;;;;;0.17;0.17;;;0.50;1.00;226.50;231333.00;;;;5013195;28;20258;-69
2022/03/07 06:24:57;;;;;;;0.20;0.20;;;0.40;1.00;226.50;231333.00;;;;5012755;28;20223;-73
2022/03/07 06:27:25;;;;;;;0.10;0.10;;;0.40;1.00;226.50;231333.00;;;;5013231;28;20274;-71
2022/03/07 06:29:53;;;;;;;0.17;0.17;;;0.50;1.00;226.50;231333.00;;;;5013016;28;20196;-72
2022/03/07 06:32:23;;;;;;;0.10;0.10;;;0.40;1.00;226.50;231333.00;;;;5013393;28;20227;-71
2022/03/07 06:34:53;;;;;;;0.10;0.10;;;0.50;1.00;226.50;231333.00;;;;5012201;28;20767;-71
2022/03/07 06:37:21;;;;;;;0.20;0.20;;;0.50;1.00;226.50;231333.00;;;;5012778;28;20223;-71
2022/03/07 06:39:49;;;;;;;0.13;0.13;;;0.50;1.00;226.50;231333.00;;;;5010704;28;20208;-71
2022/03/07 06:42:17;;;;;;;0.13;0.13;;;0.60;1.00;226.50;231333.00;;;;5009214;28;20191;-74
2022/03/07 06:44:45;;;;;;;0.20;0.20;;;0.50;1.00;226.50;231333.00;;;;5008387;28;20216;-73
2022/03/07 06:47:13;;;;;;;0.10;0.10;;;0.50;1.00;226.50;231333.00;;;;5012579;28;20290;-71
2022/03/07 06:49:42;;;;;;;0.10;0.10;;;0.50;1.00;226.50;231333.00;;;;5013004;28;20575;-72
2022/03/07 06:52:12;;;;;;;0.20;0.20;;;0.40;1.00;226.50;231333.00;;;;5004696;28;20311;-71
2022/03/07 06:54:40;;;;;;;0.10;0.10;;;0.50;1.00;226.50;231333.00;;;;5005734;28;20674;-72
2022/03/07 06:57:08;;;;;;;0.10;0.10;;;0.40;1.00;226.50;231333.00;;;;5007126;28;20290;-72
2022/03/07 06:59:36;;;;;;;0.20;0.20;;;0.50;1.00;226.50;231333.00;;;;5013069;28;20214;-71
2022/03/07 07:02:05;;;;;;;0.10;0.10;;;0.50;1.00;226.50;231333.00;;;;5008835;28;20218;-71
2022/03/07 07:04:39;;;;;;;0.15;0.15;;;0.60;1.00;226.50;231333.00;;;;5008450;28;20713;-72
2022/03/07 07:07:07;;;;;;;0.20;0.20;;;0.60;1.00;226.50;231333.00;;;;5008841;28;20211;-72
2022/03/07 07:09:37;;;;;;;0.20;0.20;;;0.60;44.10;226.50;231333.00;;;;5010075;28;20653;-72
2022/03/07 07:12:06;;;;;;;0.10;0.10;;;0.70;1.00;226.50;231333.00;;;;5007421;28;20203;-72
2022/03/07 07:14:34;;;;;;;0.10;0.10;;;0.70;1.00;226.50;231333.00;;;;5013047;28;20196;-73
2022/03/07 07:17:03;;;;;;;0.10;0.10;;;0.70;1.00;226.50;231333.00;;;;5012104;28;20223;-73
2022/03/07 07:19:31;;;;;;;0.13;0.13;;;0.60;1.00;226.50;231333.00;;;;5013727;28;20207;-71
2022/03/07 07:21:59;;;;;;;0.10;0.10;;;0.60;1.00;226.50;231333.00;;;;5012783;28;20187;-72
2022/03/07 07:24:27;;;;;;;0.10;0.10;;;0.60;1.00;226.50;231333.00;;;;5012855;28;20215;-72
2022/03/07 07:26:56;;;;;;;0.10;0.10;;;0.60;1.00;226.50;231333.00;;;;5011766;28;20234;-72
2022/03/07 07:29:25;;;;;;;0.10;0.10;;;0.80;1.00;226.50;231333.00;;;;5012460;28;20207;-71
2022/03/07 07:31:53;;;;;;;0.15;0.15;;;0.80;1.00;226.50;231333.00;;;;5012373;28;20199;-72
2022/03/07 07:34:23;;;;;;;0.15;0.15;;;0.90;99.90;226.50;231333.00;;;;5010918;28;20226;-72
2022/03/07 07:36:51;;;;;;;0.10;0.10;;;1.00;99.90;226.50;231333.00;;;;5011831;28;20700;-73
2022/03/07 07:39:19;;;;;;;0.10;0.10;;;0.90;1.00;226.50;231333.00;;;;5011955;28;20192;-72
2022/03/07 07:41:47;;;;;;;0.20;0.20;;;1.00;1.00;226.50;231333.00;;;;5012297;28;20199;-72
2022/03/07 07:44:16;;;;;;;0.10;0.10;;;1.00;1.00;226.50;231333.00;;;;5012279;28;20187;-72
2022/03/07 07:46:44;;;;;;;0.10;0.10;;;1.10;99.90;226.50;231333.00;;;;5004605;28;20207;-73
2022/03/07 07:49:14;;;;;;;0.10;0.10;;;1.10;99.90;226.50;231333.00;;;;5012585;28;20195;-73
2022/03/07 07:51:43;;;;;;;0.20;0.20;;;1.10;20.00;226.50;231333.00;;;;5012548;28;20680;-72
2022/03/07 07:54:11;;;;;;;0.10;0.10;;;1.10;1.00;226.50;231333.00;;;;5012536;28;20200;-72
2022/03/07 07:56:38;;;;;;;0.10;0.10;;;1.30;1.00;226.50;231333.00;;;;5011388;28;20626;-72
2022/03/07 07:59:07;;;;;;;0.10;0.10;;;1.30;1.00;226.50;231333.00;;;;5012965;28;20188;-72
2022/03/07 08:01:36;;;;;;;0.10;0.10;;;1.40;1.00;226.50;231333.00;;;;5012366;28;20550;-72
2022/03/07 08:04:05;;;;;;;0.10;0.10;;;1.50;99.90;226.50;231333.00;;;;5012267;28;20195;-74
2022/03/07 08:06:33;;;;;;;0.10;0.10;;;1.60;96.00;226.50;231333.00;;;;5010096;28;20278;-73
2022/03/07 08:09:03;;;;;;;0.10;0.10;;;1.60;1.00;226.50;231333.00;;;;5012610;28;20191;-72
2022/03/07 08:11:31;;;;;;;0.10;0.10;;;1.60;1.00;226.50;231333.00;;;;5011920;28;20208;-73
2022/03/07 08:13:59;;;;;;;0.10;0.10;;;1.70;1.00;226.50;231333.00;;;;5012382;28;20196;-72
2022/03/07 08:16:27;;;;;;;0.10;0.10;;;1.70;1.00;226.50;231333.00;;;;5011402;28;20222;-72
2022/03/07 08:18:57;;;;;;;0.10;0.10;;;1.80;99.90;226.50;231333.00;;;;5008247;28;20196;-72
2022/03/07 08:21:25;;;;;;;0.10;0.10;;;1.90;99.90;226.50;231333.00;;;;5007199;28;20208;-72
2022/03/07 08:23:54;;;;;;;0.10;0.10;;;1.90;1.00;226.50;231333.00;;;;5009934;28;20287;-72
2022/03/07 08:26:23;;;;;;;0.10;0.10;;;1.90;1.00;226.50;231333.00;;;;5011886;28;20631;-73
2022/03/07 08:28:51;;;;;;;0.10;0.10;;;1.80;1.00;226.50;231333.00;;;;5012747;28;20200;-73
2022/03/07 08:31:19;;;;;;;0.10;0.10;;;1.70;1.00;226.50;231333.00;;;;5012161;28;20238;-72
2022/03/07 08:33:47;;;;;;;0.15;0.15;;;1.70;1.00;226.50;231333.00;;;;5011098;28;20258;-72
2022/03/07 08:36:17;;;;;;;0.10;0.10;;;1.70;1.00;226.50;231333.00;;;;5010989;28;20202;-73
2022/03/07 08:38:45;;;;;;;0.10;0.10;;;1.60;1.00;226.50;231333.00;;;;5010962;28;20938;-72
2022/03/07 08:41:13;;;;;;;0.10;0.10;;;1.60;1.00;226.50;231333.00;;;;5011663;28;20200;-73
2022/03/07 08:43:42;;;;;;;0.10;0.10;;;1.50;1.00;226.50;231333.00;;;;5005481;28;20200;-72
2022/03/07 08:46:13;;;;;;;0.10;0.10;;;1.40;1.00;226.50;231333.00;;;;5005443;28;20215;-73
2022/03/07 08:48:41;;;;;;;0.10;0.10;;;1.40;1.00;226.50;231333.00;;;;5011090;28;20270;-72
2022/03/07 08:51:09;;;;;;;0.10;0.10;;;1.60;1.00;226.50;231333.00;;;;5011808;28;20246;-72
2022/03/07 08:53:38;;;;;;;0.10;0.10;;;1.70;1.00;226.50;231333.00;;;;5011134;28;20196;-72
2022/03/07 08:56:07;;;;;;;0.10;0.10;;;1.80;1.00;226.50;231333.00;;;;5012240;28;20208;-72
2022/03/07 08:58:53;;;;;;;0.10;0.10;;;1.80;99.90;226.50;231333.00;;;;5017926;28;20180;-72
2022/03/07 09:01:22;;;;;;;0.13;0.13;;;1.90;1.00;226.50;231333.00;;;;5016257;28;20183;-72
2022/03/07 09:03:50;;;;;;;0.10;0.10;;;1.90;19.30;226.50;231333.00;;;;5022684;28;20198;-72
2022/03/07 09:06:18;;;;;;;0.20;0.20;;;1.90;1.00;226.50;231333.00;;;;5022489;28;20238;-72
2022/03/07 09:08:48;;;;;;;0.10;0.10;;;2.00;1.00;226.50;231333.00;;;;5021560;28;20760;-72
2022/03/07 09:11:22;;;;;;;0.10;0.10;;;2.00;1.00;226.50;231333.00;;;;5022867;28;20219;-72
2022/03/07 09:13:50;;;;;;;0.20;0.20;;;2.00;1.00;226.50;231333.00;;;;5021344;28;20202;-73
2022/03/07 09:16:18;;;;;;;0.10;0.10;;;2.00;1.00;226.50;231333.00;;;;5021921;28;20214;-72
2022/03/07 09:18:46;;;;;;;0.10;0.10;;;2.10;1.00;226.50;231333.00;;;;5015870;28;20214;-72
2022/03/07 09:21:14;;;;;;;0.15;0.15;;;2.10;1.00;226.50;231333.00;;;;5021351;28;20553;-73
2022/03/07 09:23:42;;;;;;;0.10;0.10;;;2.20;1.00;226.50;231333.00;;;;5022078;28;20202;-73
2022/03/07 09:26:11;;;;;;;0.10;0.10;;;2.20;99.90;226.50;231333.00;;;;5020810;28;20306;-73
2022/03/07 09:28:40;;;;;;;0.10;0.10;;;2.20;99.90;226.50;231333.00;;;;5020469;28;20206;-73
2022/03/07 09:31:08;;;;;;;0.10;0.10;;;2.20;99.90;226.50;231333.00;;;;5021573;28;20787;-72
2022/03/07 09:33:36;;;;;;;0.20;0.20;;;2.20;99.90;226.50;231333.00;;;;5020569;28;20200;-73
2022/03/07 09:36:04;;;;;;;0.10;0.10;;;2.20;99.90;226.50;231333.00;;;;5020695;28;20257;-73
2022/03/07 09:38:37;;;;;;;0.10;0.10;;;2.20;99.90;226.50;231333.00;;;;5020230;28;20290;-73
2022/03/07 09:41:07;;;;;;;0.10;0.10;;;2.20;99.90;226.50;231333.00;;;;5021984;28;20200;-72
2022/03/07 09:43:37;;;;;;;0.10;0.10;;;2.30;99.90;226.50;231333.00;;;;5021205;28;20242;-72
2022/03/07 09:46:05;;;;;;;0.10;0.10;;;2.30;99.90;226.50;231333.00;;;;5020862;28;20228;-73
2022/03/07 09:48:33;;;;;;;0.10;0.10;;;2.20;99.90;226.50;231333.00;;;;5020795;28;20199;-73
2022/03/07 09:51:01;;;;;;;0.10;0.10;;;2.20;99.90;226.50;231333.00;;;;5020627;28;20195;-73
2022/03/07 09:53:31;;;;;;;0.10;0.10;;;2.30;99.90;226.50;231333.00;;;;5019259;28;20207;-72
2022/03/07 09:55:59;;;;;;;0.10;0.10;;;2.40;99.90;226.50;231333.00;;;;5021171;28;20266;-72
2022/03/07 09:58:27;;;;;;;0.10;0.10;;;2.50;99.90;226.50;231333.00;;;;5019882;28;20191;-73
2022/03/07 10:01:08;;;;;;;0.10;0.10;;;2.50;99.90;226.50;231333.00;;;;5022894;28;20191;-73
2022/03/07 10:03:37;;;;;;;0.10;0.10;;;2.50;99.90;226.50;231333.00;;;;5021871;28;20199;-73
2022/03/07 10:06:13;;;;;;;0.10;0.10;;;2.60;99.90;226.50;231333.00;;;;5021929;28;20219;-73
2022/03/07 10:08:52;;;;;;;0.10;0.10;;;2.70;99.90;226.50;231333.00;;;;5022659;28;20226;-72
2022/03/07 10:11:21;;;;;;;0.10;0.10;;;2.80;99.90;226.50;231333.00;;;;5021201;28;20246;-75
2022/03/07 10:13:54;;;;;;;0.10;0.10;;;2.90;99.90;226.50;231333.00;;;;5018354;28;20204;-72
2022/03/07 10:16:38;;;;;;;0.10;0.10;;;3.00;99.90;226.50;231333.00;;;;5019409;28;20215;-72
2022/03/07 10:19:13;;;;;;;0.10;0.10;;;3.00;99.90;226.50;231333.00;;;;5018097;28;20195;-72
2022/03/07 10:21:47;;;;;;;0.10;0.10;;;3.10;99.90;226.50;231333.00;;;;5020311;28;20260;-72
2022/03/07 10:24:15;;;;;;;0.10;0.10;;;3.20;99.90;226.50;231333.00;;;;5020840;28;20242;-72
2022/03/07 10:26:44;;;;;;;0.20;0.20;;;3.30;99.90;226.50;231333.00;;;;5018103;28;20246;-73
2022/03/07 10:29:14;;;;;;;0.10;0.10;;;3.40;99.90;226.50;231333.00;;;;5019897;28;20187;-73
2022/03/07 10:31:59;;;;;;;0.10;0.10;;;3.50;99.90;226.50;231333.00;;;;5021462;28;20274;-73
2022/03/07 10:34:28;;;;;;;0.10;0.10;;;3.40;99.90;226.50;231333.00;;;;5022139;28;20203;-72
2022/03/07 10:36:56;;;;;;;0.10;0.10;;;3.50;99.90;226.50;231333.00;;;;5030159;28;20222;-72
2022/03/07 10:39:27;;;;;;;0.10;0.10;;;3.70;99.90;226.50;231333.00;;;;5033992;28;20188;-73
2022/03/07 10:41:56;;;;;;;0.10;0.10;;;3.80;99.90;226.50;231333.00;;;;5032246;28;20206;-72
2022/03/07 10:44:28;;;;;;;0.10;0.10;;;3.80;96.30;226.50;231333.00;;;;5027415;28;20192;-71
2022/03/07 10:47:09;;;;;;;0.10;0.10;;;3.80;96.50;226.50;231333.00;;;;5029503;28;20243;-72
2022/03/07 10:49:48;;;;;;;0.10;0.10;;;3.70;93.80;226.50;231333.00;;;;5031237;28;20194;-72
2022/03/07 10:52:17;;;;;;;0.10;0.10;;;3.80;93.90;226.50;231333.00;;;;5033457;28;20211;-72
2022/03/07 10:54:47;;;;;;;0.10;0.10;;;3.80;92.80;226.50;231333.00;;;;5028745;28;20218;-73
2022/03/07 10:57:16;;;;;;;0.10;0.10;;;3.90;92.00;226.50;231333.00;;;;5020233;28;20266;-72
2022/03/07 10:59:45;;;;;;;0.10;0.10;;;4.00;87.80;226.50;231333.00;;;;5020970;28;20850;-73